createdAt,value
2019-02-27T00:04:41.970Z,17.200001
2019-02-27T00:10:06.089Z,18
2019-02-27T00:15:27.576Z,15.6
2019-02-27T00:20:50.314Z,16.4
2019-02-27T00:26:13.134Z,15.4
2019-02-27T00:31:35.798Z,15.5
2019-02-27T00:36:59.469Z,17.799999
2019-02-27T00:42:23.043Z,16
2019-02-27T00:47:45.823Z,18
2019-02-27T00:53:08.665Z,16.6
2019-02-27T00:58:31.378Z,14.2
2019-02-27T01:03:54.034Z,17
2019-02-27T01:09:18.160Z,17.6
2019-02-27T01:14:40.817Z,18.4
2019-02-27T01:20:04.258Z,19.1
2019-02-27T01:25:26.922Z,21.9
2019-02-27T01:30:49.567Z,20.700001
2019-02-27T01:36:12.464Z,21.799999
2019-02-27T01:41:35.183Z,20.6
2019-02-27T01:47:01.490Z,20.299999
2019-02-27T01:52:21.568Z,21.5
2019-02-27T01:57:44.291Z,21.5
2019-02-27T02:03:07.368Z,21.9
2019-02-27T02:08:32.022Z,20.9
2019-02-27T02:13:54.921Z,22
2019-02-27T02:19:18.926Z,20.700001
2019-02-27T02:24:41.354Z,23.799999
2019-02-27T02:30:05.012Z,22.700001
2019-02-27T02:35:27.664Z,23.700001
2019-02-27T02:40:50.497Z,21.799999
2019-02-27T02:46:13.154Z,23.1
2019-02-27T02:51:35.912Z,22.1
2019-02-27T02:57:00.451Z,20.9
2019-02-27T03:02:23.701Z,22.200001
2019-02-27T03:07:45.645Z,21.799999
2019-02-27T03:13:07.728Z,23.700001
2019-02-27T03:18:30.447Z,21.799999
2019-02-27T03:23:52.927Z,24.700001
2019-02-27T03:29:17.108Z,22.6
2019-02-27T03:34:47.810Z,25.200001
2019-02-27T03:40:02.386Z,24.299999
2019-02-27T03:45:30.586Z,23.6
2019-02-27T03:50:50.879Z,25.4
2019-02-27T03:56:13.383Z,24.5
2019-02-27T04:01:36.560Z,27.200001
2019-02-27T04:06:59.301Z,24.5
2019-02-27T04:12:22.322Z,25.700001
2019-02-27T04:17:51.408Z,23.299999
2019-02-27T04:23:12.408Z,23.9
2019-02-27T04:28:33.310Z,26.700001
2019-02-27T04:33:59.513Z,27.299999
2019-02-27T04:39:19.804Z,24.6
2019-02-27T04:44:42.465Z,21.700001
2019-02-27T04:50:05.153Z,25.6
2019-02-27T04:55:28.820Z,23.200001
2019-02-27T05:00:51.445Z,24.9
2019-02-27T05:06:15.086Z,27.6
2019-02-27T05:11:37.107Z,25.5
2019-02-27T05:17:00.447Z,25.1
2019-02-27T05:22:26.134Z,27.6
2019-02-27T05:27:46.829Z,26
2019-02-27T05:33:09.613Z,26
2019-02-27T05:38:32.272Z,24.6
2019-02-27T05:43:54.980Z,27.799999
2019-02-27T05:49:17.951Z,26
2019-02-27T05:54:40.757Z,24.5
2019-02-27T06:00:03.611Z,26.9
2019-02-27T06:05:27.147Z,26.6
2019-02-27T06:10:54.982Z,28.200001
2019-02-27T06:16:13.510Z,28.200001
2019-02-27T06:21:36.262Z,28.4
2019-02-27T06:27:00.062Z,27.700001
2019-02-27T06:32:24.097Z,26.9
2019-02-27T06:37:50.353Z,43.200001
2019-02-27T06:43:10.546Z,30.9
2019-02-27T06:48:34.090Z,28.1
2019-02-27T06:53:56.733Z,60.5
2019-02-27T06:59:19.370Z,33
2019-02-27T07:04:43.040Z,41.200001
2019-02-27T07:10:05.710Z,49
2019-02-27T07:15:28.691Z,76.699997
2019-02-27T07:20:52.578Z,36.5
2019-02-27T07:26:16.619Z,28.6
2019-02-27T07:31:38.978Z,26.200001
2019-02-27T07:37:02.666Z,29.1
2019-02-27T07:42:25.349Z,31.1
2019-02-27T07:47:49.150Z,28.9
2019-02-27T07:53:12.527Z,25.200001
2019-02-27T07:58:37.842Z,30.4
2019-02-27T08:04:00.497Z,28.700001
2019-02-27T08:09:23.913Z,29.799999
2019-02-27T08:14:47.875Z,28.299999
2019-02-27T08:20:10.947Z,32.299999
2019-02-27T08:25:33.679Z,30.5
2019-02-27T08:30:57.578Z,30.1
2019-02-27T08:36:20.230Z,30.200001
2019-02-27T08:41:42.877Z,27.5
2019-02-27T08:47:07.761Z,27.1
2019-02-27T08:52:29.264Z,26.700001
2019-02-27T08:57:55.468Z,24.9
2019-02-27T09:03:20.156Z,26.200001
2019-02-27T09:08:43.033Z,25.799999
2019-02-27T09:14:03.374Z,24.700001
2019-02-27T09:19:26.059Z,22.299999
2019-02-27T09:24:48.756Z,23.4
2019-02-27T09:30:11.406Z,22.299999
2019-02-27T09:35:38.397Z,22.200001
2019-02-27T09:40:57.760Z,19.4
2019-02-27T09:46:20.530Z,19
2019-02-27T09:51:43.279Z,20.6
2019-02-27T09:57:05.945Z,17.5
2019-02-27T10:02:28.583Z,18.5
2019-02-27T10:07:52.020Z,18.1
2019-02-27T10:13:13.862Z,15.1
2019-02-27T10:18:36.617Z,19.700001
2019-02-27T10:23:59.207Z,20.9
2019-02-27T10:29:23.882Z,16.4
2019-02-27T10:34:46.539Z,19.799999
2019-02-27T10:40:11.414Z,17.9
2019-02-27T10:45:32.854Z,19.299999
2019-02-27T10:50:55.469Z,18.700001
2019-02-27T10:56:18.209Z,18.799999
2019-02-27T11:01:41.886Z,17.5
2019-02-27T11:07:04.675Z,16.700001
2019-02-27T11:12:29.403Z,16.299999
2019-02-27T11:17:50.699Z,16.1
2019-02-27T11:23:13.346Z,15.3
2019-02-27T11:28:36.020Z,16
2019-02-27T11:33:58.919Z,15.2
2019-02-27T11:39:21.570Z,15.8
2019-02-27T11:44:44.394Z,16.4
2019-02-27T11:50:08.021Z,16.200001
2019-02-27T11:55:30.684Z,17.799999
2019-02-27T12:00:53.323Z,16.5
2019-02-27T12:06:15.976Z,17.9
2019-02-27T12:11:38.610Z,16.4
2019-02-27T12:17:01.250Z,15.8
2019-02-27T12:22:23.785Z,15.7
2019-02-27T12:27:49.343Z,15.8
2019-02-27T12:33:10.019Z,14.2
2019-02-27T12:38:33.539Z,15.3
2019-02-27T12:43:56.184Z,23.700001
2019-02-27T12:49:19.897Z,15.3
2019-02-27T12:54:41.476Z,15.7
2019-02-27T13:00:05.716Z,15.5
2019-02-27T13:05:27.893Z,16.1
2019-02-27T13:10:50.581Z,18.299999
2019-02-27T13:16:14.428Z,16.6
2019-02-27T13:21:36.052Z,18.6
2019-02-27T13:26:59.191Z,18.799999
2019-02-27T13:32:26.373Z,14.3
2019-02-27T13:37:45.529Z,13.9
2019-02-27T13:43:08.122Z,15.8
2019-02-27T13:48:30.918Z,13.3
2019-02-27T13:53:53.470Z,13.9
2019-02-27T13:59:19.550Z,13.3
2019-02-27T14:04:40.455Z,13.3
2019-02-27T14:10:03.096Z,13.4
2019-02-27T14:15:27.181Z,12.7
2019-02-27T14:20:48.422Z,11.8
2019-02-27T14:26:11.061Z,15
2019-02-27T14:31:33.645Z,14
2019-02-27T14:36:56.248Z,16.799999
2019-02-27T14:42:20.420Z,12.1
2019-02-27T14:47:41.525Z,13.8
2019-02-27T14:53:04.243Z,13.7
2019-02-27T14:58:26.815Z,12.7
2019-02-27T15:03:49.471Z,13.9
2019-02-27T15:09:12.063Z,12.5
2019-02-27T15:14:35.434Z,14.6
2019-02-27T15:20:01.589Z,12.9
2019-02-27T15:25:22.547Z,13.9
2019-02-27T15:30:46.602Z,17.4
2019-02-27T15:36:07.914Z,12
2019-02-27T15:41:35.088Z,14.6
2019-02-27T15:46:56.576Z,14.3
2019-02-27T15:52:16.747Z,15
2019-02-27T15:57:40.061Z,15.5
2019-02-27T16:03:02.664Z,14.8
2019-02-27T16:08:26.187Z,14.7
2019-02-27T16:13:48.854Z,15.6
2019-02-27T16:19:15.116Z,14.9
2019-02-27T16:24:40.307Z,13.5
2019-02-27T16:30:01.559Z,13.5
2019-02-27T16:35:24.368Z,11.3
2019-02-27T16:40:51.985Z,15.5
2019-02-27T16:46:11.295Z,14.1
2019-02-27T16:51:35.561Z,13.6
2019-02-27T16:56:58.382Z,14.2
2019-02-27T17:02:22.131Z,15.2
2019-02-27T17:07:45.915Z,14.5
2019-02-27T17:13:08.068Z,14.7
2019-02-27T17:18:31.857Z,14
2019-02-27T17:23:54.513Z,14.7
2019-02-27T17:29:17.211Z,16.200001
2019-02-27T17:34:40.579Z,14.4
2019-02-27T17:40:04.214Z,14.4
2019-02-27T17:45:27.888Z,13.9
2019-02-27T17:50:50.622Z,14.2
2019-02-27T17:56:15.378Z,12.9
2019-02-27T18:01:36.052Z,16.700001
2019-02-27T18:07:00.571Z,15.1
2019-02-27T18:12:22.772Z,16.5
2019-02-27T18:17:45.515Z,22.700001
2019-02-27T18:23:08.216Z,18.700001
2019-02-27T18:28:32.910Z,18.5
2019-02-27T18:33:54.465Z,20.700001
2019-02-27T18:39:17.209Z,18.299999
2019-02-27T18:44:41.443Z,17.299999
2019-02-27T18:50:02.721Z,17.200001
2019-02-27T18:55:29.188Z,15.5
2019-02-27T19:00:49.140Z,16.299999
2019-02-27T19:06:12.233Z,15.3
2019-02-27T19:11:34.609Z,15.1
2019-02-27T19:16:57.281Z,16.1
2019-02-27T19:22:19.999Z,15.8
2019-02-27T19:27:42.692Z,16.4
2019-02-27T19:33:06.073Z,15.9
2019-02-27T19:38:28.713Z,17
2019-02-27T19:43:54.770Z,15.6
2019-02-27T19:49:15.187Z,16.700001
2019-02-27T19:54:39.218Z,17.5
2019-02-27T20:00:02.165Z,16
2019-02-27T20:05:24.928Z,17.299999
2019-02-27T20:10:48.478Z,15.2
2019-02-27T20:16:11.099Z,17
2019-02-27T20:21:33.854Z,15.9
2019-02-27T20:26:57.485Z,16.200001
2019-02-27T20:32:20.241Z,16.200001
2019-02-27T20:37:42.850Z,15.2
2019-02-27T20:43:06.572Z,17.299999
2019-02-27T20:48:29.191Z,17.4
2019-02-27T20:53:55.411Z,16.5
2019-02-27T20:59:15.925Z,15.5
2019-02-27T21:04:39.197Z,15.3
2019-02-27T21:10:01.502Z,20.299999
2019-02-27T21:15:24.945Z,16.299999
2019-02-27T21:20:47.960Z,19.299999
2019-02-27T21:26:11.599Z,18.799999
2019-02-27T21:31:34.290Z,16
2019-02-27T21:36:57.257Z,17
2019-02-27T21:42:19.883Z,17.1
2019-02-27T21:47:42.685Z,18.799999
2019-02-27T21:53:05.330Z,17.200001
2019-02-27T21:58:31.723Z,16.1
2019-02-27T22:03:52.039Z,19.4
2019-02-27T22:09:15.012Z,19.5
2019-02-27T22:14:38.795Z,22.200001
2019-02-27T22:20:01.453Z,19.799999
2019-02-27T22:25:24.128Z,20.5
2019-02-27T22:30:47.893Z,19.299999
2019-02-27T22:36:12.649Z,19.299999
2019-02-27T22:41:33.414Z,20.700001
2019-02-27T22:46:57.171Z,21.9
2019-02-27T22:52:20.866Z,20.4
2019-02-27T22:57:43.449Z,24.1
2019-02-27T23:03:06.157Z,22.700001
2019-02-27T23:08:28.856Z,23.9
2019-02-27T23:13:51.590Z,25.299999
2019-02-27T23:19:15.305Z,28.1
2019-02-27T23:24:38.293Z,26.700001
2019-02-27T23:30:01.972Z,25.200001
2019-02-27T23:35:24.765Z,29.9
2019-02-27T23:40:48.953Z,30.299999
2019-02-27T23:46:10.178Z,30
2019-02-27T23:51:32.865Z,31.700001
2019-02-27T23:56:55.622Z,29
